createdAt,value
2022-11-19T00:01:57.429Z,87.46
2022-11-19T00:04:26.532Z,87.99
2022-11-19T00:06:54.582Z,87.49
2022-11-19T00:09:22.341Z,87.24
2022-11-19T00:12:07.798Z,86.76
2022-11-19T00:14:35.670Z,87.66
2022-11-19T00:17:03.673Z,87.60
2022-11-19T00:19:32.632Z,88.19
2022-11-19T00:22:00.266Z,88.56
2022-11-19T00:24:28.954Z,88.27
2022-11-19T00:26:57.320Z,88.50
2022-11-19T00:29:25.025Z,88.77
2022-11-19T00:31:53.368Z,89.08
2022-11-19T00:34:21.060Z,88.96
2022-11-19T00:36:51.185Z,88.82
2022-11-19T00:39:19.331Z,88.53
2022-11-19T00:41:47.293Z,88.73
2022-11-19T00:44:14.905Z,88.47
2022-11-19T00:46:42.816Z,88.67
2022-11-19T00:49:10.455Z,89.03
2022-11-19T00:51:38.941Z,89.32
2022-11-19T00:54:08.048Z,89.59
2022-11-19T00:56:36.270Z,88.91
2022-11-19T00:59:04.450Z,89.44
2022-11-19T01:01:32.676Z,88.56
2022-11-19T01:04:00.388Z,88.79
2022-11-19T01:06:28.611Z,88.10
2022-11-19T01:08:56.311Z,87.80
2022-11-19T01:11:27.800Z,87.23
2022-11-19T01:13:55.789Z,87.84
2022-11-19T01:16:25.874Z,87.43
2022-11-19T01:18:54.010Z,87.33
2022-11-19T01:21:23.987Z,87.01
2022-11-19T01:23:51.922Z,86.96
2022-11-19T01:26:20.465Z,87.09
2022-11-19T01:28:49.582Z,87.66
2022-11-19T01:31:19.927Z,88.11
2022-11-19T01:33:47.895Z,87.91
2022-11-19T01:36:18.165Z,87.56
2022-11-19T01:38:50.514Z,86.95
2022-11-19T01:41:19.468Z,87.12
2022-11-19T01:43:50.302Z,87.88
2022-11-19T01:46:20.622Z,87.79
2022-11-19T01:48:52.068Z,87.61
2022-11-19T01:51:25.494Z,87.26
2022-11-19T01:53:54.992Z,87.86
2022-11-19T01:56:24.614Z,88.04
2022-11-19T01:58:58.919Z,88.04
2022-11-19T02:01:27.600Z,87.66
2022-11-19T02:03:55.370Z,87.56
2022-11-19T02:06:23.312Z,87.25
2022-11-19T02:08:51.581Z,87.25
2022-11-19T02:11:37.748Z,86.67
2022-11-19T02:14:22.495Z,86.93
2022-11-19T02:17:01.657Z,87.42
2022-11-19T02:19:53.228Z,87.43
2022-11-19T02:22:37.876Z,87.79
2022-11-19T02:25:19.713Z,87.78
2022-11-19T02:28:09.851Z,89.10
2022-11-19T02:30:42.183Z,89.06
2022-11-19T02:33:16.076Z,89.26
2022-11-19T02:35:49.587Z,89.09
2022-11-19T02:38:26.479Z,88.67
2022-11-19T02:40:59.781Z,88.57
2022-11-19T02:43:34.785Z,88.73
2022-11-19T02:46:09.177Z,88.64
2022-11-19T02:48:40.293Z,89.25
2022-11-19T02:51:09.225Z,89.11
2022-11-19T02:53:37.465Z,88.93
2022-11-19T02:56:13.171Z,88.86
2022-11-19T02:59:05.788Z,88.82
2022-11-19T03:01:56.394Z,89.24
2022-11-19T03:04:32.688Z,88.82
2022-11-19T03:07:05.877Z,88.69
2022-11-19T03:09:38.003Z,88.54
2022-11-19T03:12:14.989Z,88.01
2022-11-19T03:15:08.455Z,88.39
2022-11-19T03:17:51.949Z,88.48
2022-11-19T03:20:26.588Z,88.11
2022-11-19T03:22:59.219Z,88.91
2022-11-19T03:25:31.806Z,88.16
2022-11-19T03:28:04.778Z,88.40
2022-11-19T03:30:33.079Z,88.18
2022-11-19T03:33:07.677Z,88.17
2022-11-19T03:35:40.700Z,87.67
2022-11-19T03:38:13.425Z,87.31
2022-11-19T03:40:43.135Z,87.04
2022-11-19T03:43:18.152Z,87.47
2022-11-19T03:45:48.209Z,88.08
2022-11-19T03:48:19.447Z,88.39
2022-11-19T03:50:50.457Z,88.37
2022-11-19T03:53:21.194Z,87.87
2022-11-19T03:55:54.620Z,88.74
2022-11-19T03:58:25.603Z,89.51
2022-11-19T04:00:54.001Z,89.69
2022-11-19T04:03:23.374Z,90.10
2022-11-19T04:05:51.731Z,89.62
2022-11-19T04:08:19.383Z,89.74
2022-11-19T04:10:47.732Z,90.35
2022-11-19T04:13:15.403Z,89.86
2022-11-19T04:15:43.505Z,89.58
2022-11-19T04:18:11.159Z,89.75
2022-11-19T04:20:40.187Z,89.16
2022-11-19T04:23:07.823Z,89.73
2022-11-19T04:25:36.099Z,89.81
2022-11-19T04:28:03.753Z,89.73
2022-11-19T04:30:32.033Z,88.83
2022-11-19T04:32:59.718Z,88.52
2022-11-19T04:35:27.756Z,88.65
2022-11-19T04:37:56.744Z,88.92
2022-11-19T04:40:25.221Z,88.08
2022-11-19T04:42:52.881Z,88.42
2022-11-19T04:45:21.187Z,88.21
2022-11-19T04:47:48.889Z,88.30
2022-11-19T04:50:17.052Z,88.03
2022-11-19T04:52:44.730Z,89.74
2022-11-19T04:55:13.770Z,89.33
2022-11-19T04:57:41.471Z,89.11
2022-11-19T05:00:10.562Z,89.65
2022-11-19T05:02:38.207Z,89.92
2022-11-19T05:05:07.135Z,89.51
2022-11-19T05:07:34.835Z,89.62
2022-11-19T05:10:03.223Z,89.15
2022-11-19T05:12:32.237Z,89.19
2022-11-19T05:15:00.723Z,88.63
2022-11-19T05:17:28.379Z,87.99
2022-11-19T05:19:56.428Z,87.86
2022-11-19T05:22:24.077Z,87.69
2022-11-19T05:24:51.972Z,87.38
2022-11-19T05:27:20.120Z,87.88
2022-11-19T05:29:49.188Z,87.45
2022-11-19T05:32:17.518Z,87.92
2022-11-19T05:34:45.322Z,87.43
2022-11-19T05:37:13.361Z,87.50
2022-11-19T05:39:41.085Z,87.18
2022-11-19T05:42:09.187Z,87.68
2022-11-19T05:44:36.856Z,87.49
2022-11-19T05:47:06.485Z,87.58
2022-11-19T05:49:34.196Z,87.91
2022-11-19T05:52:02.578Z,87.50
2022-11-19T05:54:30.388Z,87.40
2022-11-19T05:56:58.391Z,87.69
2022-11-19T05:59:26.128Z,87.42
2022-11-19T06:01:53.929Z,87.81
2022-11-19T06:04:22.951Z,88.23
2022-11-19T06:06:51.449Z,88.33
2022-11-19T06:09:19.513Z,87.96
2022-11-19T06:11:51.224Z,88.31
2022-11-19T06:14:21.973Z,87.97
2022-11-19T06:16:51.702Z,87.54
2022-11-19T06:19:20.462Z,87.95
2022-11-19T06:21:50.552Z,88.00
2022-11-19T06:24:18.972Z,87.08
2022-11-19T06:26:47.409Z,87.84
2022-11-19T06:29:17.252Z,88.32
2022-11-19T06:31:46.004Z,88.38
2022-11-19T06:34:13.663Z,88.36
2022-11-19T06:36:45.109Z,87.90
2022-11-19T06:39:17.115Z,87.71
2022-11-19T06:41:45.906Z,87.64
2022-11-19T06:44:13.565Z,87.41
2022-11-19T06:46:41.698Z,87.56
2022-11-19T06:49:12.254Z,87.62
2022-11-19T06:51:42.564Z,88.55
2022-11-19T06:54:10.847Z,88.02
2022-11-19T06:56:40.016Z,88.13
2022-11-19T06:59:07.685Z,88.09
2022-11-19T07:01:35.796Z,87.96
2022-11-19T07:04:03.540Z,87.76
2022-11-19T07:06:31.745Z,87.85
2022-11-19T07:08:59.667Z,87.44
2022-11-19T07:11:27.687Z,87.93
2022-11-19T07:13:58.569Z,87.72
2022-11-19T07:16:29.196Z,87.02
2022-11-19T07:18:58.346Z,87.07
2022-11-19T07:21:26.890Z,86.96
2022-11-19T07:23:54.960Z,86.39
2022-11-19T07:26:22.866Z,86.43
2022-11-19T07:28:51.029Z,85.78
2022-11-19T07:31:20.160Z,85.69
2022-11-19T07:33:48.632Z,85.74
2022-11-19T07:36:18.571Z,85.60
2022-11-19T07:38:47.477Z,85.62
2022-11-19T07:41:32.532Z,84.53
2022-11-19T07:44:01.017Z,84.88
2022-11-19T07:46:30.052Z,84.76
2022-11-19T07:48:59.754Z,83.87
2022-11-19T07:51:28.089Z,84.63
2022-11-19T07:53:57.292Z,84.32
2022-11-19T07:56:25.569Z,84.25
2022-11-19T07:58:53.745Z,83.44
2022-11-19T08:01:26.868Z,83.31
2022-11-19T08:03:57.035Z,82.86
2022-11-19T08:06:26.502Z,83.77
2022-11-19T08:08:56.018Z,83.15
2022-11-19T08:11:24.727Z,83.09
2022-11-19T08:13:53.054Z,83.65
2022-11-19T08:16:35.617Z,83.29
2022-11-19T08:19:07.444Z,82.69
2022-11-19T08:21:35.273Z,83.58
2022-11-19T08:24:03.769Z,82.67
2022-11-19T08:26:31.524Z,82.34
2022-11-19T08:28:59.238Z,81.29
2022-11-19T08:31:27.311Z,82.79
2022-11-19T08:33:54.986Z,82.55
2022-11-19T08:36:24.074Z,81.40
2022-11-19T08:38:51.995Z,81.86
2022-11-19T08:41:37.190Z,82.75
2022-11-19T08:44:05.904Z,83.41
2022-11-19T08:46:33.554Z,84.40
2022-11-19T08:49:01.924Z,85.39
2022-11-19T08:51:30.996Z,84.35
2022-11-19T08:53:58.982Z,84.23
2022-11-19T08:56:26.881Z,83.55
2022-11-19T08:58:59.824Z,82.18
2022-11-19T09:01:30.402Z,81.62
2022-11-19T09:03:58.663Z,81.95
2022-11-19T09:06:26.965Z,81.37
2022-11-19T09:08:56.667Z,81.01
2022-11-19T09:11:24.327Z,82.60
2022-11-19T09:13:52.849Z,82.82
2022-11-19T09:16:20.617Z,81.95
2022-11-19T09:18:48.604Z,80.94
2022-11-19T09:21:16.374Z,81.36
2022-11-19T09:23:44.332Z,81.94
2022-11-19T09:26:15.659Z,84.38
2022-11-19T09:28:44.576Z,83.43
2022-11-19T09:31:14.677Z,81.85
2022-11-19T09:33:43.933Z,84.47
2022-11-19T09:36:12.845Z,83.15
2022-11-19T09:38:41.373Z,85.33
2022-11-19T09:41:33.865Z,83.54
2022-11-19T09:44:13.798Z,85.20
2022-11-19T09:46:47.353Z,85.79
2022-11-19T09:49:19.692Z,85.61
2022-11-19T09:51:57.157Z,86.74
2022-11-19T09:54:26.129Z,86.30
2022-11-19T09:57:00.506Z,86.60
2022-11-19T09:59:36.529Z,87.16
2022-11-19T10:02:14.257Z,85.49
2022-11-19T10:04:42.507Z,87.21
2022-11-19T10:07:16.302Z,86.07
2022-11-19T10:09:56.064Z,85.99
2022-11-19T10:12:41.492Z,84.45
2022-11-19T10:15:21.005Z,84.02
2022-11-19T10:18:00.994Z,82.23
2022-11-19T10:20:52.433Z,81.65
2022-11-19T10:23:24.286Z,83.21
2022-11-19T10:26:00.253Z,81.77
2022-11-19T10:28:31.799Z,83.01
2022-11-19T10:31:07.777Z,82.68
2022-11-19T10:33:40.318Z,81.44
2022-11-19T10:36:12.248Z,83.08
2022-11-19T10:38:51.273Z,83.37
2022-11-19T10:41:28.066Z,82.82
2022-11-19T10:44:01.413Z,83.61
2022-11-19T10:46:30.118Z,81.30
2022-11-19T10:49:00.067Z,82.43
2022-11-19T10:51:30.623Z,81.87
2022-11-19T10:53:58.934Z,80.44
2022-11-19T10:56:38.654Z,80.87
2022-11-19T10:59:13.634Z,80.82
2022-11-19T11:01:44.471Z,82.47
2022-11-19T11:04:16.905Z,81.64
2022-11-19T11:06:53.309Z,81.73
2022-11-19T11:09:34.528Z,80.83
2022-11-19T11:12:28.733Z,82.02
2022-11-19T11:15:01.899Z,82.65
2022-11-19T11:17:31.699Z,80.51
2022-11-19T11:20:01.880Z,80.95
2022-11-19T11:22:29.914Z,82.23
2022-11-19T11:25:02.716Z,81.00
2022-11-19T11:27:36.104Z,81.49
2022-11-19T11:30:17.201Z,81.25
2022-11-19T11:32:45.403Z,81.55
2022-11-19T11:35:31.696Z,81.83
2022-11-19T11:38:01.218Z,82.01
2022-11-19T11:40:30.431Z,82.19
2022-11-19T11:42:59.021Z,81.96
2022-11-19T11:45:32.891Z,82.65
2022-11-19T11:48:06.734Z,83.14
2022-11-19T11:50:36.445Z,82.33
2022-11-19T11:53:09.426Z,81.99
2022-11-19T11:55:38.535Z,80.42
2022-11-19T11:58:07.642Z,79.54
2022-11-19T12:00:39.158Z,77.94
2022-11-19T12:03:08.618Z,77.90
2022-11-19T12:05:47.246Z,79.52
2022-11-19T12:08:29.675Z,78.88
2022-11-19T12:11:03.061Z,77.83
2022-11-19T12:13:50.201Z,77.20
2022-11-19T12:16:29.207Z,75.43
2022-11-19T12:19:10.754Z,73.40
2022-11-19T12:21:51.888Z,74.88
2022-11-19T12:24:39.869Z,74.27
2022-11-19T12:27:20.325Z,72.59
2022-11-19T12:29:57.049Z,70.14
2022-11-19T12:32:42.088Z,69.68
2022-11-19T12:35:22.692Z,68.22
2022-11-19T12:38:30.617Z,70.24
2022-11-19T12:41:12.009Z,69.72
2022-11-19T12:43:52.623Z,70.58
2022-11-19T12:46:32.766Z,71.72
2022-11-19T12:49:23.808Z,72.62
2022-11-19T12:51:58.802Z,72.90
2022-11-19T12:54:41.315Z,71.91
2022-11-19T12:57:23.214Z,73.00
2022-11-19T13:00:09.182Z,75.31
2022-11-19T13:02:45.397Z,75.74
2022-11-19T13:05:19.090Z,76.12
2022-11-19T13:07:54.044Z,75.83
2022-11-19T13:10:25.423Z,77.16
2022-11-19T13:12:57.570Z,75.98
2022-11-19T13:15:30.675Z,75.75
2022-11-19T13:18:02.545Z,74.53
2022-11-19T13:20:40.395Z,72.55
2022-11-19T13:23:16.538Z,73.87
2022-11-19T13:25:50.954Z,72.96
2022-11-19T13:28:24.428Z,74.92
2022-11-19T13:30:56.136Z,72.93
2022-11-19T13:33:29.579Z,73.64
2022-11-19T13:36:04.220Z,73.07
2022-11-19T13:38:38.709Z,72.44
2022-11-19T13:41:12.114Z,73.47
2022-11-19T13:43:58.674Z,74.80
2022-11-19T13:46:33.049Z,75.83
2022-11-19T13:49:05.995Z,76.39
2022-11-19T13:51:39.109Z,76.35
2022-11-19T13:54:09.510Z,75.77
2022-11-19T13:56:41.277Z,77.28
2022-11-19T13:59:25.101Z,78.27
2022-11-19T14:02:03.258Z,77.13
2022-11-19T14:04:47.957Z,78.14
2022-11-19T14:07:39.545Z,77.64
2022-11-19T14:10:17.213Z,78.84
2022-11-19T14:13:19.147Z,78.85
2022-11-19T14:16:16.232Z,79.88
2022-11-19T14:19:05.928Z,79.42
2022-11-19T14:22:04.393Z,79.33
2022-11-19T14:25:17.890Z,78.20
2022-11-19T14:27:45.942Z,78.89
2022-11-19T14:30:19.523Z,78.51
2022-11-19T14:32:50.183Z,78.21
2022-11-19T14:35:38.324Z,77.13
2022-11-19T14:38:34.138Z,76.38
2022-11-19T14:41:27.580Z,75.93
2022-11-19T14:44:09.612Z,76.53
2022-11-19T14:46:39.432Z,75.47
2022-11-19T14:49:24.301Z,75.62
2022-11-19T14:51:55.144Z,76.58
2022-11-19T14:54:31.900Z,76.43
2022-11-19T14:57:05.627Z,76.77
2022-11-19T14:59:37.744Z,77.42
2022-11-19T15:02:17.117Z,78.58
2022-11-19T15:04:53.258Z,79.46
2022-11-19T15:07:36.347Z,80.28
2022-11-19T15:10:36.744Z,80.76
2022-11-19T15:13:36.455Z,80.22
2022-11-19T15:16:09.353Z,80.60
2022-11-19T15:19:06.842Z,80.38
2022-11-19T15:22:19.723Z,80.50
2022-11-19T15:24:58.739Z,80.32
2022-11-19T15:27:49.694Z,80.40
2022-11-19T15:30:22.025Z,80.37
2022-11-19T15:33:10.851Z,79.82
2022-11-19T15:36:10.686Z,79.66
2022-11-19T15:38:41.415Z,79.97
2022-11-19T15:41:15.186Z,80.05
2022-11-19T15:43:46.194Z,80.28
2022-11-19T15:46:20.609Z,79.94
2022-11-19T15:48:58.984Z,79.70
2022-11-19T15:51:26.789Z,79.58
2022-11-19T15:54:02.184Z,79.41
2022-11-19T15:56:33.525Z,79.15
2022-11-19T15:59:03.517Z,79.05
2022-11-19T16:01:34.336Z,79.05
2022-11-19T16:04:07.721Z,79.01
2022-11-19T16:06:36.959Z,79.48
2022-11-19T16:09:05.883Z,79.29
2022-11-19T16:11:55.296Z,79.73
2022-11-19T16:14:43.160Z,79.36
2022-11-19T16:17:39.812Z,79.41
2022-11-19T16:20:22.338Z,80.16
2022-11-19T16:22:59.183Z,80.38
2022-11-19T16:25:33.210Z,80.09
2022-11-19T16:28:03.918Z,80.56
2022-11-19T16:30:41.628Z,80.27
2022-11-19T16:33:16.044Z,80.23
2022-11-19T16:35:49.712Z,80.86
2022-11-19T16:38:26.100Z,80.24
2022-11-19T16:41:12.505Z,80.18
2022-11-19T16:43:42.863Z,80.02
2022-11-19T16:46:15.563Z,80.46
2022-11-19T16:49:03.000Z,80.96
2022-11-19T16:51:39.697Z,81.01
2022-11-19T16:54:09.758Z,80.92
2022-11-19T16:56:45.949Z,81.71
2022-11-19T16:59:23.745Z,82.72
2022-11-19T17:01:56.128Z,82.83
2022-11-19T17:04:28.128Z,82.90
2022-11-19T17:06:57.904Z,83.78
2022-11-19T17:09:37.348Z,83.19
2022-11-19T17:12:23.354Z,83.90
2022-11-19T17:14:54.274Z,83.57
2022-11-19T17:17:27.743Z,83.46
2022-11-19T17:19:58.411Z,84.74
2022-11-19T17:22:30.727Z,85.95
2022-11-19T17:24:59.197Z,85.90
2022-11-19T17:27:29.051Z,86.39
2022-11-19T17:30:01.628Z,87.06
2022-11-19T17:32:34.929Z,86.14
2022-11-19T17:35:04.644Z,86.89
2022-11-19T17:37:32.298Z,87.14
2022-11-19T17:40:00.262Z,86.40
2022-11-19T17:42:45.621Z,86.26
2022-11-19T17:45:13.641Z,86.33
2022-11-19T17:47:41.282Z,85.79
2022-11-19T17:50:10.702Z,85.06
2022-11-19T17:52:38.339Z,84.65
2022-11-19T17:55:15.001Z,84.29
2022-11-19T17:57:42.960Z,84.52
2022-11-19T18:00:11.851Z,84.68
2022-11-19T18:02:39.536Z,84.98
2022-11-19T18:05:17.138Z,84.82
2022-11-19T18:07:44.781Z,84.38
2022-11-19T18:10:12.950Z,84.83
2022-11-19T18:12:41.195Z,85.04
2022-11-19T18:15:14.408Z,84.84
2022-11-19T18:17:42.430Z,85.15
2022-11-19T18:20:10.911Z,85.16
2022-11-19T18:22:41.300Z,84.68
2022-11-19T18:25:14.820Z,84.58
2022-11-19T18:27:43.032Z,84.44
2022-11-19T18:30:11.873Z,83.94
2022-11-19T18:32:39.865Z,83.63
2022-11-19T18:35:16.057Z,84.10
2022-11-19T18:37:45.790Z,83.87
2022-11-19T18:40:15.755Z,83.77
2022-11-19T18:43:04.869Z,84.26
2022-11-19T18:45:31.615Z,84.02
2022-11-19T18:47:59.353Z,84.24
2022-11-19T18:50:30.047Z,84.40
2022-11-19T18:53:00.098Z,84.35
2022-11-19T18:55:28.207Z,84.43
2022-11-19T18:57:56.121Z,84.67
2022-11-19T19:00:23.941Z,84.32
2022-11-19T19:02:52.145Z,85.35
2022-11-19T19:05:19.798Z,85.57
2022-11-19T19:07:47.725Z,84.90
2022-11-19T19:10:17.226Z,84.98
2022-11-19T19:12:44.066Z,85.13
2022-11-19T19:15:11.784Z,85.21
2022-11-19T19:17:39.764Z,85.12
2022-11-19T19:20:08.699Z,84.08
2022-11-19T19:22:36.826Z,85.22
2022-11-19T19:25:05.680Z,84.32
2022-11-19T19:27:35.039Z,83.95
2022-11-19T19:30:02.746Z,84.38
2022-11-19T19:32:30.970Z,85.11
2022-11-19T19:34:58.605Z,84.47
2022-11-19T19:37:26.246Z,84.66
2022-11-19T19:39:53.882Z,84.87
2022-11-19T19:42:21.984Z,84.89
2022-11-19T19:44:50.990Z,85.42
2022-11-19T19:47:19.320Z,85.84
2022-11-19T19:49:47.072Z,84.99
2022-11-19T19:52:15.013Z,85.07
2022-11-19T19:54:43.591Z,84.57
2022-11-19T19:57:11.346Z,84.57
2022-11-19T19:59:38.969Z,84.46
2022-11-19T20:02:10.383Z,84.29
2022-11-19T20:04:38.058Z,84.32
2022-11-19T20:07:06.847Z,84.27
2022-11-19T20:09:34.924Z,84.92
2022-11-19T20:12:02.570Z,84.78
2022-11-19T20:14:30.844Z,84.15
2022-11-19T20:16:58.676Z,84.16
2022-11-19T20:19:28.004Z,83.78
2022-11-19T20:21:56.297Z,83.77
2022-11-19T20:24:24.476Z,83.72
2022-11-19T20:26:52.107Z,83.60
2022-11-19T20:29:21.900Z,83.43
2022-11-19T20:31:51.608Z,83.49
2022-11-19T20:34:19.765Z,83.60
2022-11-19T20:36:48.867Z,83.68
2022-11-19T20:39:17.360Z,83.33
2022-11-19T20:42:02.794Z,83.39
2022-11-19T20:44:31.169Z,83.96
2022-11-19T20:46:59.883Z,83.55
2022-11-19T20:49:29.769Z,82.73
2022-11-19T20:51:59.028Z,81.93
2022-11-19T20:54:27.764Z,82.89
2022-11-19T20:56:56.725Z,82.47
2022-11-19T20:59:26.355Z,82.76
2022-11-19T21:01:55.498Z,82.71
2022-11-19T21:04:24.191Z,82.59
2022-11-19T21:06:53.729Z,82.39
2022-11-19T21:09:23.349Z,82.15
2022-11-19T21:11:51.384Z,82.47
2022-11-19T21:14:19.876Z,82.73
2022-11-19T21:16:47.682Z,82.08
2022-11-19T21:19:16.353Z,82.28
2022-11-19T21:21:45.342Z,82.78
2022-11-19T21:24:13.581Z,82.51
2022-11-19T21:26:42.725Z,83.05
2022-11-19T21:29:11.248Z,83.35
2022-11-19T21:31:40.374Z,83.03
2022-11-19T21:34:09.836Z,83.33
2022-11-19T21:36:38.465Z,83.37
2022-11-19T21:39:07.556Z,83.21
2022-11-19T21:41:35.462Z,84.17
2022-11-19T21:44:06.191Z,84.44
2022-11-19T21:46:34.607Z,84.74
2022-11-19T21:49:02.981Z,84.13
2022-11-19T21:51:30.763Z,84.53
2022-11-19T21:53:59.587Z,84.77
2022-11-19T21:56:31.280Z,84.68
2022-11-19T21:59:01.773Z,84.74
2022-11-19T22:01:30.776Z,84.35
2022-11-19T22:03:58.949Z,84.64
2022-11-19T22:06:26.565Z,85.14
2022-11-19T22:08:55.657Z,84.56
2022-11-19T22:11:32.479Z,84.66
2022-11-19T22:14:03.231Z,84.82
2022-11-19T22:16:34.937Z,84.87
2022-11-19T22:19:03.026Z,84.89
2022-11-19T22:21:30.679Z,84.65
2022-11-19T22:23:58.963Z,85.01
2022-11-19T22:26:27.159Z,85.10
2022-11-19T22:28:55.111Z,85.60
2022-11-19T22:31:22.942Z,85.24
2022-11-19T22:33:53.032Z,84.88
2022-11-19T22:36:22.702Z,84.46
2022-11-19T22:38:51.181Z,84.21
2022-11-19T22:41:21.102Z,84.05
2022-11-19T22:43:49.215Z,84.09
2022-11-19T22:46:18.463Z,84.17
2022-11-19T22:48:46.091Z,84.52
2022-11-19T22:51:17.587Z,84.05
2022-11-19T22:53:45.736Z,84.21
2022-11-19T22:56:16.437Z,84.26
2022-11-19T22:58:44.213Z,84.09
2022-11-19T23:01:18.747Z,84.31
2022-11-19T23:03:47.034Z,84.23
2022-11-19T23:06:16.725Z,84.09
2022-11-19T23:08:44.963Z,83.97
2022-11-19T23:11:14.500Z,84.51
2022-11-19T23:13:43.157Z,84.63
2022-11-19T23:16:15.327Z,85.04
2022-11-19T23:18:48.053Z,84.87
2022-11-19T23:21:19.861Z,85.04
2022-11-19T23:23:47.637Z,85.59
2022-11-19T23:26:17.880Z,85.58
2022-11-19T23:28:45.881Z,85.74
2022-11-19T23:31:16.484Z,84.81
2022-11-19T23:33:44.546Z,84.88
2022-11-19T23:36:15.429Z,84.83
2022-11-19T23:38:44.822Z,84.23
2022-11-19T23:41:15.307Z,83.81
2022-11-19T23:43:43.476Z,83.80
2022-11-19T23:46:13.617Z,84.25
2022-11-19T23:48:43.901Z,84.35
2022-11-19T23:51:14.357Z,83.93
2022-11-19T23:53:44.241Z,84.02
2022-11-19T23:56:13.280Z,83.88
2022-11-19T23:58:41.234Z,83.08
